Aeroporto :
LOGIN :

Iscrizione | Disclaimer

   EN    FR    IT 

 










Sommario :    VFR   VFR Marginale   IFR   IFR Intensivo   IFR Molto Intensivo
Visibilità : 
Base nubi : 
>= 8 km
>= 3000ft
5 / 8 km
1000 / 3000 ft
1500m / 5 km
500 / 1000 ft
800 / 1500m
200 / 500 ft
< 800m
< 200 ft
Simboli :   Temporali  Nebbia  Neve Forte  Precipitazioni Forti  Vento > 20 kt
SIGMETs :   Varie  Temporali  Ghiacco  Turbolenza  Onda orograficha  Ceneri Vulcaniche






- Altitudine del aeroporto : 425 ft
- Codice IATA : DTM


EDLW - Dortmund

ULTIMO METAR :
  • 162320Z AUTO 16007KT 9999 // NCD 03/00 Q1012

METARs OBSOLETI :
  • 162250Z AUTO 16007KT 9999 // NCD 03/01 Q1012
  • 162220Z AUTO 17006KT 9999 // NCD 03/00 Q1011
  • 162150Z AUTO 16007KT 9999 // NCD 02/00 Q1011
  • 162120Z AUTO 16008KT 9999 // NCD 03/00 Q1011
  • 162050Z 15006KT CAVOK 03/00 Q1011

TAF TAF EDLW
Valido dal 16 a 18 ore il 17 a 18 ore UTC


161700Z 1618/1718 18005KT CAVOK
BECMG 1618/1621 VRB03KT
TEMPO 1702/1710 4000 BR
PROB30
TEMPO 1705/1710 BKN006
BECMG 1708/1711 02008KT
TEMPO 1717/1718 4000 -RA BKN014



MetMap, La meteo Aeronautica in un colpo d'occhio ! - Copyright ORBIFLY Dicembre 2007 - Disclaimer

ORBIFLY MET'MAP TEAM :

Programmazione e sviluppo : Alexandra Zaïnal
Concezione e sviluppo : Baudouin d'Aumeries
Co-Programmazione e sviluppo : Marc-Olivier Méhu
Supporto tecnico e logistico : Manuel Goepfert
Aiuto per la traduzione : Arnaldo La Scala

Contatto : metmap@orbifly.com




FONTI E CREDITI :

   NOAA